Time;durP1;ratioP1;P1;durP2;ratioP2;P2;SDS_P1;SDS_P2;PMS_P1;PMS_P2;Temp;Humidity;BMP_temperature;BMP_pressure;BME280_temperature;BME280_humidity;BME280_pressure;Samples;Min_cycle;Max_cycle;Signal;HPM_P1;HPM_P2
2022/12/26 00:02:27;;;;;;;;;;;9.80;99.90;;;;;;5006943;28;20025;-73
2022/12/26 00:05:00;;;;;;;;;;;9.70;99.90;;;;;;4995042;28;20623;-73
2022/12/26 00:07:35;;;;;;;;;;;9.80;99.90;;;;;;4996144;28;20348;-72
2022/12/26 00:10:07;;;;;;;;;;;9.80;99.90;;;;;;5007999;28;19929;-73
2022/12/26 00:13:01;;;;;;;;;;;9.80;99.90;;;;;;5019184;28;20024;-73
2022/12/26 00:15:29;;;;;;;;;;;9.80;99.90;;;;;;5009584;28;19936;-73
2022/12/26 00:18:00;;;;;;;;;;;9.80;99.90;;;;;;5008673;28;20327;-73
2022/12/26 00:20:29;;;;;;;;;;;9.80;99.90;;;;;;4986836;28;19925;-73
2022/12/26 00:23:01;;;;;;;;;;;9.70;99.90;;;;;;5028010;28;19987;-73
2022/12/26 00:25:33;;;;;;;;;;;9.60;99.90;;;;;;5010608;28;19925;-73
2022/12/26 00:28:02;;;;;;;;;;;9.50;99.90;;;;;;5009436;28;19940;-73
2022/12/26 00:30:36;;;;;;;;;;;9.40;99.90;;;;;;4994363;28;19932;-73
2022/12/26 00:33:13;;;;;;;;;;;9.30;99.90;;;;;;5009501;28;19972;-73
2022/12/26 00:35:43;;;;;;;;;;;9.50;99.90;;;;;;5010417;28;19929;-72
2022/12/26 00:38:15;;;;;;;;;;;9.60;99.90;;;;;;5017200;28;19992;-73
2022/12/26 00:40:44;;;;;;;;;;;9.80;99.90;;;;;;5010715;28;20320;-73
2022/12/26 00:43:13;;;;;;;;;;;9.80;99.90;;;;;;5010723;28;20037;-73
2022/12/26 00:45:44;;;;;;;;;;;9.90;99.90;;;;;;5003101;28;20021;-73
2022/12/26 00:48:13;;;;;;;;;;;10.00;99.90;;;;;;5012741;28;19961;-73
2022/12/26 00:50:48;;;;;;;;;;;10.00;99.90;;;;;;5022241;28;19926;-72
2022/12/26 00:53:18;;;;;;;;;;;10.00;99.90;;;;;;5012029;28;19925;-72
2022/12/26 00:55:47;;;;;;;;;;;9.90;99.90;;;;;;5005672;28;19925;-72
2022/12/26 00:58:16;;;;;;;;;;;9.90;99.90;;;;;;4991731;28;20017;-73
2022/12/26 01:00:45;;;;;;;;;;;9.90;99.90;;;;;;5010272;28;19925;-72
2022/12/26 01:03:13;;;;;;;;;;;10.00;99.90;;;;;;5014930;28;19991;-72
2022/12/26 01:05:45;;;;;;;;;;;9.90;99.90;;;;;;5003877;28;19929;-72
2022/12/26 01:08:15;;;;;;;;;;;9.90;99.90;;;;;;5006504;28;20002;-73
2022/12/26 01:10:45;;;;;;;;;;;9.80;99.90;;;;;;5007182;28;19932;-72
2022/12/26 01:13:14;;;;;;;;;;;9.80;99.90;;;;;;5011376;28;19929;-72
2022/12/26 01:15:49;;;;;;;;;;;9.70;99.90;;;;;;4996032;28;19988;-72
2022/12/26 01:18:18;;;;;;;;;;;9.60;99.90;;;;;;5000128;28;19948;-72
2022/12/26 01:20:47;;;;;;;;;;;9.50;99.90;;;;;;4998036;28;19930;-73
2022/12/26 01:23:19;;;;;;;;;;;9.40;99.90;;;;;;5002152;28;19926;-73
2022/12/26 01:25:49;;;;;;;;;;;9.30;99.90;;;;;;5005982;28;19934;-73
2022/12/26 01:28:19;;;;;;;;;;;9.20;99.90;;;;;;4990496;28;19926;-73
2022/12/26 01:31:12;;;;;;;;;;;9.10;99.90;;;;;;4991758;28;20447;-72
2022/12/26 01:33:42;;;;;;;;;;;9.00;99.90;;;;;;5004063;28;19933;-72
2022/12/26 01:36:12;;;;;;;;;;;9.00;99.90;;;;;;5006652;28;19960;-72
2022/12/26 01:38:41;;;;;;;;;;;9.00;99.90;;;;;;5006998;28;19929;-72
2022/12/26 01:41:18;;;;;;;;;;;9.00;99.90;;;;;;5007155;28;20391;-72
2022/12/26 01:43:55;;;;;;;;;;;9.10;99.90;;;;;;5008085;28;19933;-72
2022/12/26 01:46:44;;;;;;;;;;;9.10;99.90;;;;;;5007514;28;20025;-72
2022/12/26 01:49:12;;;;;;;;;;;9.10;99.90;;;;;;4997091;28;19930;-72
2022/12/26 01:51:44;;;;;;;;;;;9.10;99.90;;;;;;5008483;28;20020;-73
2022/12/26 01:54:13;;;;;;;;;;;9.10;99.90;;;;;;5005698;28;19930;-72
2022/12/26 01:56:43;;;;;;;;;;;9.20;99.90;;;;;;5007875;28;19932;-72
2022/12/26 01:59:22;;;;;;;;;;;9.10;99.90;;;;;;5003159;28;19973;-73
2022/12/26 02:01:52;;;;;;;;;;;9.20;99.90;;;;;;4986560;28;19930;-73
2022/12/26 02:07:13;;;;;;;;;;;9.20;99.90;;;;;;5007025;28;20015;-72
2022/12/26 02:09:42;;;;;;;;;;;9.20;99.90;;;;;;5005854;28;19930;-72
2022/12/26 02:12:19;;;;;;;;;;;9.20;99.90;;;;;;5006923;28;19933;-73
2022/12/26 02:14:49;;;;;;;;;;;9.20;99.90;;;;;;4999911;28;19937;-73
2022/12/26 02:17:18;;;;;;;;;;;9.20;99.90;;;;;;5004977;28;20401;-73
2022/12/26 02:20:03;;;;;;;;;;;9.20;99.90;;;;;;5026101;28;19969;-72
2022/12/26 02:22:52;;;;;;;;;;;9.20;99.90;;;;;;5020886;28;19929;-72
2022/12/26 02:25:58;;;;;;;;;;;9.20;99.90;;;;;;5005139;28;20020;-72
2022/12/26 02:28:44;;;;;;;;;;;9.30;99.90;;;;;;4993586;28;20005;-72
2022/12/26 02:31:16;;;;;;;;;;;9.40;99.90;;;;;;5004996;28;19925;-73
2022/12/26 02:33:45;;;;;;;;;;;9.30;99.90;;;;;;5010971;28;19926;-73
2022/12/26 02:36:50;;;;;;;;;;;9.40;99.90;;;;;;5006890;28;19929;-72
2022/12/26 02:39:38;;;;;;;;;;;9.40;99.90;;;;;;4959788;28;19930;-73
2022/12/26 02:42:07;;;;;;;;;;;9.40;99.90;;;;;;4983145;28;19929;-72
2022/12/26 02:47:41;;;;;;;;;;;9.40;99.90;;;;;;5016276;28;19930;-72
2022/12/26 03:14:19;;;;;;;;;;;9.50;99.90;;;;;;5002825;28;19975;-72
2022/12/26 03:19:59;;;;;;;;;;;9.50;99.90;;;;;;5005556;28;19936;-73
2022/12/26 03:22:57;;;;;;;;;;;9.40;99.90;;;;;;5013472;28;19940;-73
2022/12/26 03:28:16;;;;;;;;;;;9.40;99.90;;;;;;5010903;28;19930;-73
2022/12/26 03:30:48;;;;;;;;;;;9.30;99.90;;;;;;5006007;28;20298;-72
2022/12/26 03:36:20;;;;;;;;;;;9.30;99.90;;;;;;5008659;28;20383;-73
2022/12/26 03:38:57;;;;;;;;;;;9.30;99.90;;;;;;5007027;28;19934;-73
2022/12/26 04:19:49;;;;;;;;;;;9.30;99.90;;;;;;4998953;28;19933;-73
2022/12/26 04:45:08;;;;;;;;;;;9.40;99.90;;;;;;5002918;28;20359;-72
2022/12/26 04:50:10;;;;;;;;;;;9.30;99.90;;;;;;5000681;28;20296;-72
2022/12/26 04:50:30;;;;;;;;;;;9.40;99.90;;;;;;5020215;28;20035;-72
2022/12/26 04:52:58;;;;;;;;;;;9.40;99.90;;;;;;4988971;28;19926;-72
2022/12/26 04:55:31;;;;;;;;;;;9.30;99.90;;;;;;5009731;28;19925;-73
2022/12/26 04:58:02;;;;;;;;;;;9.30;99.90;;;;;;4974951;28;19940;-72
2022/12/26 05:00:31;;;;;;;;;;;9.30;99.90;;;;;;5000707;28;20363;-72
2022/12/26 05:11:28;;;;;;;;;;;9.20;99.90;;;;;;5008103;28;19936;-73
2022/12/26 05:13:57;;;;;;;;;;;9.20;99.90;;;;;;5008949;28;20020;-72
2022/12/26 05:30:26;;;;;;;;;;;9.10;99.90;;;;;;5007395;28;19932;-73
2022/12/26 05:35:41;;;;;;;;;;;9.20;99.90;;;;;;5001189;28;19925;-72
2022/12/26 05:38:10;;;;;;;;;;;9.10;99.90;;;;;;5007593;28;19930;-72
2022/12/26 05:40:37;;;;;;;;;;;9.10;99.90;;;;;;5005486;28;19964;-73
2022/12/26 05:43:05;;;;;;;;;;;9.10;99.90;;;;;;5008437;28;19925;-72
2022/12/26 05:45:34;;;;;;;;;;;9.10;99.90;;;;;;5007464;28;19937;-72
2022/12/26 05:48:05;;;;;;;;;;;9.20;99.90;;;;;;5007360;28;19925;-72
2022/12/26 05:50:34;;;;;;;;;;;9.20;99.90;;;;;;4986538;28;19930;-73
2022/12/26 05:53:05;;;;;;;;;;;9.20;99.90;;;;;;5008499;28;19972;-72
2022/12/26 05:55:35;;;;;;;;;;;9.10;99.90;;;;;;5009097;28;20449;-72
2022/12/26 05:58:04;;;;;;;;;;;9.20;99.90;;;;;;4990452;28;19930;-72
2022/12/26 06:00:31;;;;;;;;;;;9.20;99.90;;;;;;5003820;28;19960;-72
2022/12/26 06:03:01;;;;;;;;;;;9.10;99.90;;;;;;5004906;28;20415;-73
2022/12/26 06:05:39;;;;;;;;;;;9.00;99.90;;;;;;5003306;28;19933;-72
2022/12/26 06:08:12;;;;;;;;;;;9.00;99.90;;;;;;5007703;28;19933;-73
2022/12/26 06:10:45;;;;;;;;;;;9.00;99.90;;;;;;4989535;28;19980;-73
2022/12/26 06:13:13;;;;;;;;;;;9.00;99.90;;;;;;5010997;28;20016;-72
2022/12/26 06:15:44;;;;;;;;;;;9.00;99.90;;;;;;5006039;28;20324;-72
2022/12/26 06:18:13;;;;;;;;;;;9.00;99.90;;;;;;5006493;28;20020;-73
2022/12/26 06:20:42;;;;;;;;;;;9.00;99.90;;;;;;4984257;28;19953;-72
2022/12/26 06:23:11;;;;;;;;;;;8.90;99.90;;;;;;5005902;28;19933;-72
2022/12/26 06:25:40;;;;;;;;;;;8.90;99.90;;;;;;4993155;28;19932;-72
2022/12/26 06:28:08;;;;;;;;;;;8.90;99.90;;;;;;5006185;28;19968;-73
2022/12/26 06:30:37;;;;;;;;;;;8.90;99.90;;;;;;5000101;28;20380;-73
2022/12/26 06:33:06;;;;;;;;;;;8.90;99.90;;;;;;4993329;28;19932;-72
2022/12/26 06:35:40;;;;;;;;;;;8.90;99.90;;;;;;5002750;28;19925;-72
2022/12/26 06:38:09;;;;;;;;;;;8.90;99.90;;;;;;5005873;28;20396;-73
2022/12/26 06:40:39;;;;;;;;;;;9.00;99.90;;;;;;4992040;28;19925;-72
2022/12/26 06:43:08;;;;;;;;;;;8.90;99.90;;;;;;5012355;28;20024;-73
2022/12/26 06:45:39;;;;;;;;;;;9.00;99.90;;;;;;4997456;28;19925;-72
2022/12/26 06:48:08;;;;;;;;;;;9.00;99.90;;;;;;5008364;28;19926;-72
2022/12/26 06:50:37;;;;;;;;;;;9.00;99.90;;;;;;5004644;28;19977;-73
2022/12/26 06:53:06;;;;;;;;;;;9.00;99.90;;;;;;5013847;28;19929;-72
2022/12/26 06:55:35;;;;;;;;;;;9.00;99.90;;;;;;5005733;28;19930;-72
2022/12/26 06:58:04;;;;;;;;;;;9.00;99.90;;;;;;5005422;28;20016;-73
2022/12/26 07:00:35;;;;;;;;;;;9.00;99.90;;;;;;4999106;28;19992;-72
2022/12/26 07:03:03;;;;;;;;;;;9.00;99.90;;;;;;5002907;28;19929;-72
2022/12/26 07:05:38;;;;;;;;;;;9.00;99.90;;;;;;5000795;28;19925;-72
2022/12/26 07:08:06;;;;;;;;;;;9.00;99.90;;;;;;4991928;28;19961;-72
2022/12/26 07:10:37;;;;;;;;;;;9.00;99.90;;;;;;4996296;28;19980;-72
2022/12/26 07:13:07;;;;;;;;;;;8.90;99.90;;;;;;5009082;28;19925;-73
2022/12/26 07:15:35;;;;;;;;;;;8.90;99.90;;;;;;4986444;28;19937;-73
2022/12/26 07:18:06;;;;;;;;;;;8.90;99.90;;;;;;4996158;28;19925;-72
2022/12/26 07:20:39;;;;;;;;;;;8.90;99.90;;;;;;5009057;28;19952;-72
2022/12/26 07:23:08;;;;;;;;;;;8.90;99.90;;;;;;5011472;28;21468;-72
2022/12/26 07:25:36;;;;;;;;;;;9.00;99.90;;;;;;5010262;28;20147;-72
2022/12/26 07:28:05;;;;;;;;;;;9.00;99.90;;;;;;4988410;28;20014;-72
2022/12/26 07:30:34;;;;;;;;;;;9.00;99.90;;;;;;5002003;28;19925;-72
2022/12/26 07:33:04;;;;;;;;;;;9.10;99.90;;;;;;5030293;28;19929;-72
2022/12/26 07:35:33;;;;;;;;;;;9.20;99.90;;;;;;5001611;28;19971;-72
2022/12/26 07:38:41;;;;;;;;;;;9.20;99.90;;;;;;5005872;28;19932;-73
2022/12/26 07:43:57;;;;;;;;;;;9.20;99.90;;;;;;5022131;28;19925;-73
2022/12/26 07:46:26;;;;;;;;;;;9.30;99.90;;;;;;5010600;28;20028;-73
2022/12/26 07:49:02;;;;;;;;;;;9.30;99.90;;;;;;4998910;28;19930;-72
2022/12/26 07:51:33;;;;;;;;;;;9.40;99.90;;;;;;5008003;28;19933;-72
2022/12/26 07:54:40;;;;;;;;;;;9.40;99.90;;;;;;5011733;28;19932;-73
2022/12/26 07:57:10;;;;;;;;;;;9.50;99.90;;;;;;5003675;28;19929;-72
2022/12/26 07:59:40;;;;;;;;;;;9.60;99.90;;;;;;5008153;28;19976;-73
2022/12/26 08:02:12;;;;;;;;;;;9.60;99.90;;;;;;5006275;28;19926;-72
2022/12/26 08:04:51;;;;;;;;;;;9.70;99.90;;;;;;4996697;28;19933;-72
2022/12/26 08:07:21;;;;;;;;;;;9.80;99.90;;;;;;4983487;28;19926;-73
2022/12/26 08:09:50;;;;;;;;;;;9.80;99.90;;;;;;4994741;28;19925;-72
2022/12/26 08:12:23;;;;;;;;;;;9.80;99.90;;;;;;5010351;28;19930;-72
2022/12/26 08:14:52;;;;;;;;;;;9.80;99.90;;;;;;5011219;28;19933;-73
2022/12/26 08:17:21;;;;;;;;;;;9.80;99.90;;;;;;5009702;28;19926;-73
2022/12/26 08:19:51;;;;;;;;;;;9.80;99.90;;;;;;5007949;28;19961;-72
2022/12/26 08:22:20;;;;;;;;;;;9.90;99.90;;;;;;5032184;28;19926;-72
2022/12/26 08:24:50;;;;;;;;;;;9.90;99.90;;;;;;5024543;28;19929;-72
2022/12/26 08:27:19;;;;;;;;;;;9.90;99.90;;;;;;5010203;28;19933;-72
2022/12/26 08:29:49;;;;;;;;;;;10.00;99.90;;;;;;4974185;28;19947;-72
2022/12/26 08:32:18;;;;;;;;;;;10.00;99.90;;;;;;4990180;28;20012;-73
2022/12/26 08:34:49;;;;;;;;;;;10.00;99.90;;;;;;5009312;28;19932;-72
2022/12/26 08:37:18;;;;;;;;;;;10.00;99.90;;;;;;5007668;28;19933;-72
2022/12/26 08:39:51;;;;;;;;;;;10.00;99.90;;;;;;5003647;28;19925;-72
2022/12/26 08:42:22;;;;;;;;;;;10.10;99.90;;;;;;5009812;28;19961;-72
2022/12/26 08:44:51;;;;;;;;;;;10.10;99.90;;;;;;5010872;28;20365;-71
2022/12/26 08:47:25;;;;;;;;;;;10.20;99.90;;;;;;5010444;28;19933;-72
2022/12/26 08:49:54;;;;;;;;;;;10.20;99.90;;;;;;5007343;28;19930;-71
2022/12/26 08:52:31;;;;;;;;;;;10.20;99.90;;;;;;5011982;28;20080;-71
2022/12/26 08:55:14;;;;;;;;;;;10.30;99.90;;;;;;5006657;28;20018;-72
2022/12/26 08:57:43;;;;;;;;;;;10.40;99.90;;;;;;5007142;28;19961;-72
2022/12/26 09:00:11;;;;;;;;;;;10.40;99.90;;;;;;5006876;28;19956;-71
2022/12/26 09:02:39;;;;;;;;;;;10.40;99.90;;;;;;5014459;28;20431;-72
2022/12/26 09:05:07;;;;;;;;;;;10.50;99.90;;;;;;5006138;28;19972;-71
2022/12/26 09:07:36;;;;;;;;;;;10.50;99.90;;;;;;5009035;28;19933;-72
2022/12/26 09:10:06;;;;;;;;;;;10.50;99.90;;;;;;5007213;28;19998;-73
2022/12/26 09:12:35;;;;;;;;;;;10.60;99.90;;;;;;5013156;28;20022;-72
2022/12/26 09:15:04;;;;;;;;;;;10.60;99.90;;;;;;4992569;28;19964;-71
2022/12/26 09:17:33;;;;;;;;;;;10.60;99.90;;;;;;5008388;28;19932;-71
2022/12/26 09:20:05;;;;;;;;;;;10.60;99.90;;;;;;5000206;28;19933;-72
2022/12/26 09:22:51;;;;;;;;;;;10.70;99.90;;;;;;5005372;28;19926;-72
2022/12/26 09:25:24;;;;;;;;;;;10.70;99.90;;;;;;5000718;28;20459;-71
2022/12/26 09:27:54;;;;;;;;;;;10.70;99.90;;;;;;5007446;28;19933;-72
2022/12/26 09:30:23;;;;;;;;;;;10.80;99.90;;;;;;5007073;28;19925;-72
2022/12/26 09:32:52;;;;;;;;;;;10.70;99.90;;;;;;4993040;28;19980;-72
2022/12/26 09:35:22;;;;;;;;;;;10.80;99.90;;;;;;5009533;28;19926;-72
2022/12/26 09:37:51;;;;;;;;;;;10.90;99.90;;;;;;5008152;28;20343;-72
2022/12/26 09:40:22;;;;;;;;;;;10.90;99.90;;;;;;5006137;28;19925;-71
2022/12/26 09:43:06;;;;;;;;;;;10.90;99.90;;;;;;5009716;28;19926;-73
2022/12/26 09:45:48;;;;;;;;;;;11.00;99.90;;;;;;5004883;28;19934;-72
2022/12/26 09:48:20;;;;;;;;;;;11.10;99.90;;;;;;5005312;28;19930;-72
2022/12/26 09:51:14;;;;;;;;;;;11.10;99.90;;;;;;5005217;28;19933;-72
2022/12/26 09:53:46;;;;;;;;;;;11.10;99.90;;;;;;5006077;28;19948;-72
2022/12/26 09:56:16;;;;;;;;;;;11.20;99.90;;;;;;5008108;28;19925;-73
2022/12/26 09:58:50;;;;;;;;;;;11.20;99.90;;;;;;5005478;28;20020;-73
2022/12/26 10:01:23;;;;;;;;;;;11.30;99.90;;;;;;5001520;28;20425;-73
2022/12/26 10:03:56;;;;;;;;;;;11.30;99.90;;;;;;5010130;28;19929;-72
2022/12/26 10:06:33;;;;;;;;;;;11.30;99.90;;;;;;5013116;28;19934;-72
2022/12/26 10:09:20;;;;;;;;;;;11.40;99.90;;;;;;5002711;28;20380;-72
2022/12/26 10:11:52;;;;;;;;;;;11.40;99.90;;;;;;5009100;28;19937;-73
2022/12/26 10:14:31;;;;;;;;;;;11.40;99.90;;;;;;5001403;28;19933;-72
2022/12/26 10:17:08;;;;;;;;;;;11.50;99.90;;;;;;5005854;28;19941;-75
2022/12/26 10:19:41;;;;;;;;;;;11.50;99.90;;;;;;5005253;28;19926;-73
2022/12/26 10:22:30;;;;;;;;;;;11.40;99.90;;;;;;5002973;28;19929;-72
2022/12/26 10:25:00;;;;;;;;;;;11.40;99.90;;;;;;5004879;28;20024;-72
2022/12/26 10:27:32;;;;;;;;;;;11.40;99.90;;;;;;5005109;28;19932;-73
2022/12/26 10:30:04;;;;;;;;;;;11.40;99.90;;;;;;4989864;28;19965;-73
2022/12/26 10:32:37;;;;;;;;;;;11.40;99.90;;;;;;5017591;28;19960;-73
2022/12/26 10:35:16;;;;;;;;;;;11.40;99.90;;;;;;5008110;28;19925;-72
2022/12/26 10:37:46;;;;;;;;;;;11.30;99.90;;;;;;5004192;28;19926;-73
2022/12/26 10:40:19;;;;;;;;;;;11.40;99.90;;;;;;4983432;28;19948;-73
2022/12/26 10:43:07;;;;;;;;;;;11.30;99.90;;;;;;4997215;28;19929;-73
2022/12/26 10:45:44;;;;;;;;;;;11.30;99.90;;;;;;5007508;28;19932;-72
2022/12/26 10:48:15;;;;;;;;;;;11.30;99.90;;;;;;5016875;28;19925;-73
2022/12/26 10:50:47;;;;;;;;;;;11.20;99.90;;;;;;4998883;28;20704;-73
2022/12/26 10:53:17;;;;;;;;;;;11.20;99.90;;;;;;5001867;28;20021;-73
2022/12/26 10:55:48;;;;;;;;;;;11.10;99.90;;;;;;5007548;28;19934;-72
2022/12/26 10:58:32;;;;;;;;;;;11.00;99.90;;;;;;5005010;28;19926;-73
2022/12/26 11:01:25;;;;;;;;;;;11.00;99.90;;;;;;5010945;28;20039;-73
2022/12/26 11:03:57;;;;;;;;;;;11.00;99.90;;;;;;5010083;28;19950;-73
2022/12/26 11:06:31;;;;;;;;;;;11.00;99.90;;;;;;5007895;28;19934;-73
2022/12/26 11:09:00;;;;;;;;;;;10.90;99.90;;;;;;4990053;28;19934;-72
2022/12/26 11:11:53;;;;;;;;;;;10.90;99.90;;;;;;5012013;28;19933;-74
2022/12/26 11:14:28;;;;;;;;;;;10.90;99.90;;;;;;5008936;28;19926;-73
2022/12/26 11:16:59;;;;;;;;;;;10.80;99.90;;;;;;5011844;28;19925;-73
2022/12/26 11:19:33;;;;;;;;;;;10.70;99.90;;;;;;5016096;28;19971;-72
2022/12/26 11:22:22;;;;;;;;;;;10.70;99.90;;;;;;5030824;28;20344;-72
2022/12/26 11:25:17;;;;;;;;;;;10.60;99.90;;;;;;4998380;28;20384;-73
2022/12/26 11:27:49;;;;;;;;;;;10.60;99.90;;;;;;5007884;28;20347;-73
2022/12/26 11:30:28;;;;;;;;;;;10.60;99.90;;;;;;5006596;28;19957;-74
2022/12/26 11:33:18;;;;;;;;;;;10.50;99.90;;;;;;5004534;28;19984;-74
2022/12/26 11:36:03;;;;;;;;;;;10.50;99.90;;;;;;5019562;28;19929;-73
2022/12/26 11:38:34;;;;;;;;;;;10.50;99.90;;;;;;5010957;28;20277;-74
2022/12/26 11:43:54;;;;;;;;;;;10.50;99.90;;;;;;5022319;28;19930;-73
2022/12/26 11:46:35;;;;;;;;;;;10.40;99.90;;;;;;5008188;28;20016;-73
2022/12/26 11:49:04;;;;;;;;;;;10.40;99.90;;;;;;5004512;28;21972;-73
2022/12/26 11:51:40;;;;;;;;;;;10.30;99.90;;;;;;5006066;28;19930;-73
2022/12/26 11:54:11;;;;;;;;;;;10.30;99.90;;;;;;5015792;28;20023;-73
2022/12/26 11:56:41;;;;;;;;;;;10.20;99.90;;;;;;4995015;28;20025;-73
2022/12/26 11:59:20;;;;;;;;;;;10.20;99.90;;;;;;5007901;28;19957;-74
2022/12/26 12:02:12;;;;;;;;;;;10.20;99.90;;;;;;5011812;28;19930;-74
2022/12/26 12:04:41;;;;;;;;;;;10.20;99.90;;;;;;4998372;28;20435;-74
2022/12/26 12:07:30;;;;;;;;;;;10.20;99.90;;;;;;5007874;28;19925;-74
2022/12/26 12:10:09;;;;;;;;;;;10.20;99.90;;;;;;4978953;28;19933;-73
2022/12/26 12:12:51;;;;;;;;;;;10.20;99.90;;;;;;5005572;28;19983;-73
2022/12/26 12:15:24;;;;;;;;;;;10.20;99.90;;;;;;5009412;28;19979;-73
2022/12/26 12:18:11;;;;;;;;;;;10.20;99.90;;;;;;4990321;28;19926;-74
2022/12/26 12:20:49;;;;;;;;;;;10.10;99.90;;;;;;5021050;28;19930;-74
2022/12/26 12:23:31;;;;;;;;;;;10.10;99.90;;;;;;4987592;28;20016;-74
2022/12/26 12:26:11;;;;;;;;;;;10.00;99.90;;;;;;5016660;28;19988;-74
2022/12/26 12:29:00;;;;;;;;;;;10.00;99.90;;;;;;5010220;28;20304;-74
2022/12/26 12:31:37;;;;;;;;;;;9.90;99.90;;;;;;5017857;28;19926;-74
2022/12/26 12:34:22;;;;;;;;;;;9.90;99.90;;;;;;4991251;28;20017;-74
2022/12/26 12:37:09;;;;;;;;;;;9.80;99.90;;;;;;5004998;28;19952;-74
2022/12/26 12:40:14;;;;;;;;;;;9.80;99.90;;;;;;5005547;28;19933;-73
2022/12/26 12:43:09;;;;;;;;;;;9.70;99.90;;;;;;5009086;28;20027;-74
2022/12/26 12:45:54;;;;;;;;;;;9.80;99.90;;;;;;4999796;28;19965;-73
2022/12/26 12:48:33;;;;;;;;;;;9.80;99.90;;;;;;4996394;28;19937;-74
2022/12/26 12:51:21;;;;;;;;;;;9.70;99.90;;;;;;4998451;28;19984;-73
2022/12/26 12:54:00;;;;;;;;;;;9.70;99.90;;;;;;5000525;28;20617;-73
2022/12/26 12:56:47;;;;;;;;;;;9.70;99.90;;;;;;5001501;28;19964;-74
2022/12/26 12:59:34;;;;;;;;;;;9.70;99.90;;;;;;5015357;28;20543;-74
2022/12/26 13:02:14;;;;;;;;;;;9.60;99.90;;;;;;5003806;28;20020;-73
2022/12/26 13:05:26;;;;;;;;;;;9.60;99.90;;;;;;5005752;28;20045;-74
2022/12/26 13:08:18;;;;;;;;;;;9.60;99.90;;;;;;5015924;28;19979;-74
2022/12/26 13:11:13;;;;;;;;;;;9.60;99.90;;;;;;5003143;28;19976;-73
2022/12/26 13:13:54;;;;;;;;;;;9.50;99.90;;;;;;5022299;28;19952;-74
2022/12/26 13:16:43;;;;;;;;;;;9.50;99.90;;;;;;5013372;28;19926;-73
2022/12/26 13:19:22;;;;;;;;;;;9.50;99.90;;;;;;4995928;28;19926;-74
2022/12/26 13:21:54;;;;;;;;;;;9.40;99.90;;;;;;4997843;28;19926;-74
2022/12/26 13:24:29;;;;;;;;;;;9.40;99.90;;;;;;4992548;28;19984;-74
2022/12/26 13:27:15;;;;;;;;;;;9.40;99.90;;;;;;5008216;28;19925;-74
2022/12/26 13:29:45;;;;;;;;;;;9.30;99.90;;;;;;5015873;28;19977;-74
2022/12/26 13:32:15;;;;;;;;;;;9.30;99.90;;;;;;5000249;28;19932;-73
2022/12/26 13:34:43;;;;;;;;;;;9.30;99.90;;;;;;5009949;28;19984;-74
2022/12/26 13:37:31;;;;;;;;;;;9.30;99.90;;;;;;5009585;28;19992;-73
2022/12/26 13:40:02;;;;;;;;;;;9.20;99.90;;;;;;5010859;28;19952;-73
2022/12/26 13:45:40;;;;;;;;;;;9.20;99.90;;;;;;5009965;28;19925;-73
2022/12/26 13:48:11;;;;;;;;;;;9.10;99.90;;;;;;5008535;28;19933;-74
2022/12/26 13:50:50;;;;;;;;;;;9.10;99.90;;;;;;5001482;28;19979;-74
2022/12/26 13:53:23;;;;;;;;;;;9.10;99.90;;;;;;5003230;28;19926;-74
2022/12/26 13:55:56;;;;;;;;;;;9.10;99.90;;;;;;4983258;28;19926;-73
2022/12/26 13:58:26;;;;;;;;;;;9.10;99.90;;;;;;4990576;28;19965;-73
2022/12/26 14:01:12;;;;;;;;;;;9.00;99.90;;;;;;5000309;28;19932;-73
2022/12/26 14:03:45;;;;;;;;;;;9.00;99.90;;;;;;5004012;28;19926;-74
2022/12/26 14:06:27;;;;;;;;;;;9.00;99.90;;;;;;4999874;28;20392;-73
2022/12/26 14:08:55;;;;;;;;;;;9.00;99.90;;;;;;5004435;28;19948;-73
2022/12/26 14:11:25;;;;;;;;;;;9.00;99.90;;;;;;4999531;28;19925;-73
2022/12/26 14:14:22;;;;;;;;;;;9.00;99.90;;;;;;5022124;28;19926;-74
2022/12/26 14:16:53;;;;;;;;;;;9.00;99.90;;;;;;5015120;28;20007;-73
2022/12/26 14:19:42;;;;;;;;;;;9.00;99.90;;;;;;5006221;28;20019;-73
2022/12/26 14:22:21;;;;;;;;;;;9.00;99.90;;;;;;5024379;28;19935;-73
2022/12/26 14:25:03;;;;;;;;;;;9.00;99.90;;;;;;5029152;28;19925;-74
2022/12/26 14:27:37;;;;;;;;;;;9.00;99.90;;;;;;5008304;28;20312;-74
2022/12/26 14:30:18;;;;;;;;;;;9.00;99.90;;;;;;5004567;28;20217;-74
2022/12/26 14:32:46;;;;;;;;;;;9.00;99.90;;;;;;5008066;28;19926;-74
2022/12/26 14:35:31;;;;;;;;;;;9.10;99.90;;;;;;5013170;28;19965;-74
2022/12/26 14:38:11;;;;;;;;;;;9.00;99.90;;;;;;5011107;28;19933;-74
2022/12/26 14:40:58;;;;;;;;;;;9.00;99.90;;;;;;5008865;28;19984;-74
2022/12/26 14:43:32;;;;;;;;;;;9.00;99.90;;;;;;5006674;28;20466;-74
2022/12/26 14:46:04;;;;;;;;;;;8.90;99.90;;;;;;5007611;28;20311;-74
2022/12/26 14:48:44;;;;;;;;;;;8.90;99.90;;;;;;5001132;28;19930;-73
2022/12/26 14:51:14;;;;;;;;;;;8.80;99.90;;;;;;5009926;28;19932;-74
2022/12/26 14:53:59;;;;;;;;;;;8.80;99.90;;;;;;5016618;28;20396;-74
2022/12/26 14:56:36;;;;;;;;;;;8.80;99.90;;;;;;5001369;28;19933;-74
2022/12/26 14:59:25;;;;;;;;;;;8.80;99.90;;;;;;4975470;28;20299;-74
2022/12/26 15:02:13;;;;;;;;;;;8.90;99.90;;;;;;5006138;28;19926;-73
2022/12/26 15:05:14;;;;;;;;;;;8.80;99.90;;;;;;4990029;28;19941;-74
2022/12/26 15:07:44;;;;;;;;;;;8.80;99.90;;;;;;4998560;28;20340;-74
2022/12/26 15:10:31;;;;;;;;;;;8.80;99.90;;;;;;5000199;28;19933;-73
2022/12/26 15:13:00;;;;;;;;;;;8.70;99.90;;;;;;5024593;28;20273;-74
2022/12/26 15:15:46;;;;;;;;;;;8.70;99.90;;;;;;5006715;28;20308;-74
2022/12/26 15:18:32;;;;;;;;;;;8.70;99.90;;;;;;5010407;28;19977;-73
2022/12/26 15:21:32;;;;;;;;;;;8.60;99.90;;;;;;5008514;28;19932;-74
2022/12/26 15:24:11;;;;;;;;;;;8.70;99.90;;;;;;5003843;28;20016;-74
2022/12/26 15:26:43;;;;;;;;;;;8.70;99.90;;;;;;5007420;28;19926;-74
2022/12/26 15:29:13;;;;;;;;;;;8.60;99.90;;;;;;5003860;28;19926;-74
2022/12/26 15:32:02;;;;;;;;;;;8.60;99.90;;;;;;5010635;28;20297;-73
2022/12/26 15:34:49;;;;;;;;;;;8.60;99.90;;;;;;4995340;28;20332;-74
2022/12/26 15:37:27;;;;;;;;;;;8.60;99.90;;;;;;5008685;28;19975;-73
2022/12/26 15:40:12;;;;;;;;;;;8.60;99.90;;;;;;5012178;28;20022;-73
2022/12/26 15:42:46;;;;;;;;;;;8.60;99.90;;;;;;5007024;28;19926;-73
2022/12/26 15:45:23;;;;;;;;;;;8.60;99.90;;;;;;5001910;28;19925;-73
2022/12/26 15:48:02;;;;;;;;;;;8.60;99.90;;;;;;5007595;28;19932;-74
2022/12/26 15:51:02;;;;;;;;;;;8.60;99.90;;;;;;5004871;28;20372;-73
2022/12/26 15:53:54;;;;;;;;;;;8.60;99.90;;;;;;4992247;28;19933;-74
2022/12/26 15:56:31;;;;;;;;;;;8.60;99.90;;;;;;5002193;28;19925;-73
2022/12/26 15:59:15;;;;;;;;;;;8.60;99.90;;;;;;5001620;28;19937;-73
2022/12/26 16:02:12;;;;;;;;;;;8.60;99.90;;;;;;5005149;28;19925;-73
2022/12/26 16:04:51;;;;;;;;;;;8.60;99.90;;;;;;5009144;28;20419;-73
2022/12/26 16:07:33;;;;;;;;;;;8.60;99.90;;;;;;5015210;28;19925;-73
2022/12/26 16:10:23;;;;;;;;;;;8.60;99.90;;;;;;5001988;28;19926;-72
2022/12/26 16:13:10;;;;;;;;;;;8.60;99.90;;;;;;5008837;28;19925;-73
2022/12/26 16:15:57;;;;;;;;;;;8.60;99.90;;;;;;4989221;28;19925;-73
2022/12/26 16:18:33;;;;;;;;;;;8.60;99.90;;;;;;5009147;28;20377;-73
2022/12/26 16:23:53;;;;;;;;;;;8.50;99.90;;;;;;5003380;28;19930;-73
2022/12/26 16:26:27;;;;;;;;;;;8.50;99.90;;;;;;5008649;28;19988;-73
2022/12/26 16:28:59;;;;;;;;;;;8.50;99.90;;;;;;5009421;28;19965;-73
2022/12/26 16:31:31;;;;;;;;;;;8.50;99.90;;;;;;5014606;28;20376;-73
2022/12/26 16:34:01;;;;;;;;;;;8.50;99.90;;;;;;5024658;28;19932;-73
2022/12/26 16:36:34;;;;;;;;;;;8.40;99.90;;;;;;5003054;28;19925;-73
2022/12/26 16:39:08;;;;;;;;;;;8.40;99.90;;;;;;5018101;28;20016;-73
2022/12/26 16:41:55;;;;;;;;;;;8.40;99.90;;;;;;5014341;28;20273;-73
2022/12/26 16:44:29;;;;;;;;;;;8.40;99.90;;;;;;4998784;28;19925;-73
2022/12/26 16:47:01;;;;;;;;;;;8.30;99.90;;;;;;4983499;28;19983;-73
2022/12/26 16:49:34;;;;;;;;;;;8.40;99.90;;;;;;5007780;28;19925;-73
2022/12/26 16:52:06;;;;;;;;;;;8.40;99.90;;;;;;5011527;28;20421;-73
2022/12/26 16:54:37;;;;;;;;;;;8.40;99.90;;;;;;4979493;28;19937;-73
2022/12/26 16:57:11;;;;;;;;;;;8.40;99.90;;;;;;5009598;28;20371;-73
2022/12/26 16:59:40;;;;;;;;;;;8.40;99.90;;;;;;5007020;28;20311;-73
2022/12/26 17:02:29;;;;;;;;;;;8.40;99.90;;;;;;5009441;28;19937;-73
2022/12/26 17:05:17;;;;;;;;;;;8.40;99.90;;;;;;5007277;28;20372;-73
2022/12/26 17:07:46;;;;;;;;;;;8.40;99.90;;;;;;5008399;28;19929;-73
2022/12/26 17:10:20;;;;;;;;;;;8.40;99.90;;;;;;4999359;28;19929;-73
2022/12/26 17:12:53;;;;;;;;;;;8.40;99.90;;;;;;5017585;28;20362;-73
2022/12/26 17:15:24;;;;;;;;;;;8.40;99.90;;;;;;5003305;28;19929;-73
2022/12/26 17:17:53;;;;;;;;;;;8.40;99.90;;;;;;5006719;28;20021;-73
2022/12/26 17:20:22;;;;;;;;;;;8.40;99.90;;;;;;4999261;28;20317;-73
2022/12/26 17:22:55;;;;;;;;;;;8.40;99.90;;;;;;5011751;28;19930;-73
2022/12/26 17:25:32;;;;;;;;;;;8.40;99.90;;;;;;5013238;28;19980;-73
2022/12/26 17:28:07;;;;;;;;;;;8.40;99.90;;;;;;5005295;28;19932;-73
2022/12/26 17:30:38;;;;;;;;;;;8.40;99.90;;;;;;5009997;28;20044;-73
2022/12/26 17:33:08;;;;;;;;;;;8.40;99.90;;;;;;5000690;28;20036;-73